Time;durP1;ratioP1;P1;durP2;ratioP2;P2;SDS_P1;SDS_P2;PMS_P1;PMS_P2;Temp;Humidity;BMP_temperature;BMP_pressure;BME280_temperature;BME280_humidity;BME280_pressure;Samples;Min_cycle;Max_cycle;Signal;HPM_P1;HPM_P2
2023/09/27 00:00:36;;;;;;;0.10;0.10;;;;;;;14.05;nan;100975.66;5014572;28;20403;-82
2023/09/27 00:03:03;;;;;;;0.10;0.10;;;;;;;14.00;nan;100975.31;5014631;28;20097;-82
2023/09/27 00:05:29;;;;;;;0.10;0.10;;;;;;;13.95;nan;100973.16;5014958;28;20025;-84
2023/09/27 00:07:56;;;;;;;0.10;0.10;;;;;;;13.93;nan;100977.78;5014552;28;20287;-82
2023/09/27 00:10:21;;;;;;;0.10;0.10;;;;;;;13.93;nan;100985.75;5016085;28;20048;-83
2023/09/27 00:12:47;;;;;;;0.20;0.20;;;;;;;13.94;nan;100998.09;5036063;28;20030;-84
2023/09/27 00:15:12;;;;;;;0.15;0.15;;;;;;;13.94;nan;100994.56;5018452;28;20037;-83
2023/09/27 00:17:39;;;;;;;0.15;0.15;;;;;;;13.95;nan;100994.41;5018439;28;20034;-82
2023/09/27 00:20:09;;;;;;;0.10;0.10;;;;;;;13.96;nan;100993.41;5018061;28;20080;-83
2023/09/27 00:22:34;;;;;;;0.20;0.20;;;;;;;13.98;nan;101001.22;5017719;28;20026;-82
2023/09/27 00:25:00;;;;;;;0.10;0.10;;;;;;;13.94;nan;100998.09;5037119;28;20510;-85
2023/09/27 00:27:26;;;;;;;0.10;0.10;;;;;;;13.89;nan;100997.72;5037686;28;20037;-84
2023/09/27 00:29:51;;;;;;;0.20;0.20;;;;;;;13.85;nan;100998.19;5019940;28;20053;-84
2023/09/27 00:32:16;;;;;;;0.10;0.10;;;;;;;13.81;nan;100997.69;5037956;28;20111;-84
2023/09/27 00:34:42;;;;;;;0.10;0.10;;;;;;;13.79;nan;100992.53;5020084;28;20514;-84
2023/09/27 00:37:07;;;;;;;0.10;0.10;;;;;;;13.80;nan;100988.91;5037926;28;20034;-83
2023/09/27 00:39:35;;;;;;;0.20;0.20;;;;;;;13.80;nan;100988.91;5037963;28;20053;-84
2023/09/27 00:42:00;;;;;;;0.20;0.20;;;;;;;13.79;nan;100984.56;5037920;28;20037;-84
2023/09/27 00:44:25;;;;;;;0.20;0.20;;;;;;;13.79;nan;100983.72;5020483;28;20445;-83
2023/09/27 00:46:51;;;;;;;0.20;0.20;;;;;;;13.77;nan;100986.53;5019155;28;20041;-82
2023/09/27 00:49:16;;;;;;;0.20;0.20;;;;;;;13.79;nan;100975.75;5020220;28;20315;-85
2023/09/27 00:51:43;;;;;;;0.10;0.10;;;;;;;13.92;nan;100976.13;5027003;28;20405;-84
2023/09/27 00:54:10;;;;;;;0.10;0.10;;;;;;;13.93;nan;100979.63;5042099;28;20052;-85
2023/09/27 00:56:36;;;;;;;0.10;0.10;;;;;;;13.88;nan;100976.63;5032003;28;20093;-84
2023/09/27 00:59:01;;;;;;;0.20;0.20;;;;;;;13.83;nan;100989.56;5036694;28;20079;-84
2023/09/27 01:01:27;;;;;;;0.20;0.20;;;;;;;13.78;nan;100998.03;5050561;28;20033;-85
2023/09/27 01:03:53;;;;;;;0.10;0.10;;;;;;;13.75;nan;100993.00;5055461;28;20118;-84
2023/09/27 01:06:19;;;;;;;0.10;0.10;;;;;;;13.71;nan;100992.53;5050762;28;20449;-84
2023/09/27 01:08:45;;;;;;;0.20;0.20;;;;;;;13.65;nan;101009.09;5048971;28;20060;-85
2023/09/27 01:11:10;;;;;;;0.10;0.10;;;;;;;13.60;nan;101000.78;5050012;28;20045;-84
2023/09/27 01:13:36;;;;;;;0.10;0.10;;;;;;;13.62;nan;100998.78;5050342;28;20036;-85
2023/09/27 01:16:01;;;;;;;0.20;0.20;;;;;;;13.62;nan;100988.16;5048663;28;20038;-85
2023/09/27 01:18:27;;;;;;;0.15;0.15;;;;;;;13.69;nan;100972.41;5052343;28;20041;-85
2023/09/27 01:20:53;;;;;;;0.20;0.20;;;;;;;13.76;nan;100957.50;5060463;28;20049;-85
2023/09/27 01:23:18;;;;;;;0.20;0.20;;;;;;;13.83;nan;100958.50;5055366;28;20072;-85
2023/09/27 01:25:44;;;;;;;0.15;0.15;;;;;;;13.84;nan;100946.03;5035382;28;20033;-85
2023/09/27 01:28:10;;;;;;;0.10;0.10;;;;;;;13.80;nan;100953.53;5059648;28;20055;-84
2023/09/27 01:30:37;;;;;;;0.20;0.20;;;;;;;13.73;nan;100963.97;5050099;28;20029;-84
2023/09/27 01:33:07;;;;;;;0.10;0.10;;;;;;;13.65;nan;100966.56;5033492;28;20035;-85
2023/09/27 01:35:33;;;;;;;0.10;0.10;;;;;;;13.59;nan;100959.25;5041272;28;20055;-84
2023/09/27 01:37:59;;;;;;;0.20;0.20;;;;;;;13.52;nan;100960.91;5051252;28;20116;-84
2023/09/27 01:40:30;;;;;;;0.20;0.20;;;;;;;13.48;nan;100959.53;5058591;28;21544;-85
2023/09/27 01:42:55;;;;;;;0.25;0.25;;;;;;;13.43;nan;100962.69;5060000;28;20509;-85
2023/09/27 01:45:20;;;;;;;0.20;0.20;;;;;;;13.41;nan;100956.69;5053082;28;20295;-84
2023/09/27 01:47:46;;;;;;;0.20;0.20;;;;;;;13.45;nan;100955.38;5053777;28;20448;-85
2023/09/27 01:50:12;;;;;;;;;;;;;;;13.62;nan;100947.47;5033360;28;20038;-84
2023/09/27 01:52:37;;;;;;;0.20;0.20;;;;;;;13.83;nan;100942.56;5031630;28;20266;-84
2023/09/27 01:55:04;;;;;;;0.10;0.10;;;;;;;14.04;nan;100939.44;5039621;28;20063;-84
2023/09/27 01:57:29;;;;;;;0.15;0.15;;;;;;;14.16;nan;100926.66;5055208;28;20111;-84
2023/09/27 01:59:54;;;;;;;0.20;0.20;;;;;;;14.26;nan;100919.34;5057500;28;20072;-84
2023/09/27 02:02:19;;;;;;;0.10;0.10;;;;;;;14.32;nan;100916.00;5039977;28;20280;-84
2023/09/27 02:04:44;;;;;;;0.20;0.20;;;;;;;14.34;nan;100907.84;5040156;28;20048;-84
2023/09/27 02:07:13;;;;;;;0.10;0.10;;;;;;;14.35;nan;100909.50;5057635;28;20288;-84
2023/09/27 02:09:38;;;;;;;0.10;0.10;;;;;;;14.33;nan;100906.22;5048913;28;20431;-84
2023/09/27 02:12:03;;;;;;;0.10;0.10;;;;;;;14.32;nan;100904.53;5037641;28;20112;-84
2023/09/27 02:14:29;;;;;;;0.20;0.20;;;;;;;14.29;nan;100904.88;5051598;28;20037;-84
2023/09/27 02:16:55;;;;;;;;;;;;;;;14.29;nan;100911.00;5038317;28;20040;-85
2023/09/27 02:19:20;;;;;;;0.10;0.10;;;;;;;14.27;nan;100905.03;5054775;28;19924;-84
2023/09/27 02:21:45;;;;;;;0.20;0.20;;;;;;;14.27;nan;100920.16;5055294;28;20579;-84
2023/09/27 02:24:11;;;;;;;0.20;0.20;;;;;;;14.27;nan;100922.81;5020241;28;20040;-85
2023/09/27 02:26:36;;;;;;;0.20;0.20;;;;;;;14.29;nan;100934.13;5051199;28;20494;-84
2023/09/27 02:29:02;;;;;;;0.10;0.10;;;;;;;14.31;nan;100940.13;5032987;28;20033;-84
2023/09/27 02:31:27;;;;;;;0.10;0.10;;;;;;;14.32;nan;100939.09;5033800;28;20065;-84
2023/09/27 02:33:52;;;;;;;0.10;0.10;;;;;;;14.34;nan;100939.78;5038367;28;20033;-84
2023/09/27 02:36:18;;;;;;;0.10;0.10;;;;;;;14.31;nan;100932.97;5042282;28;20139;-84
2023/09/27 02:38:43;;;;;;;0.10;0.10;;;;;;;14.35;nan;100934.31;5033841;28;20086;-84
2023/09/27 02:41:08;;;;;;;0.10;0.10;;;;;;;14.40;nan;100931.97;5033782;28;20099;-84
2023/09/27 02:43:34;;;;;;;0.10;0.10;;;;;;;14.41;nan;100933.63;5048747;28;20040;-84
2023/09/27 02:46:00;;;;;;;0.10;0.10;;;;;;;14.49;nan;100930.16;5026637;28;20428;-84
2023/09/27 02:48:25;;;;;;;0.10;0.10;;;;;;;14.49;nan;100927.50;5044184;28;20167;-84
2023/09/27 02:50:52;;;;;;;0.10;0.10;;;;;;;14.45;nan;100942.94;5039443;28;20041;-84
2023/09/27 02:53:18;;;;;;;0.17;0.17;;;;;;;14.42;nan;100948.59;5044996;28;20385;-84
2023/09/27 02:55:43;;;;;;;0.10;0.10;;;;;;;14.39;nan;100954.22;5028176;28;20040;-84
2023/09/27 02:58:09;;;;;;;0.10;0.10;;;;;;;14.36;nan;100956.41;5030073;28;20426;-85
2023/09/27 03:00:34;;;;;;;0.20;0.20;;;;;;;14.34;nan;100956.56;5052716;28;20033;-84
2023/09/27 03:03:00;;;;;;;0.10;0.10;;;;;;;14.37;nan;100958.06;5053576;28;20279;-84
2023/09/27 03:05:26;;;;;;;0.10;0.10;;;;;;;14.39;nan;100958.72;5047339;28;20065;-84
2023/09/27 03:07:51;;;;;;;0.10;0.10;;;;;;;14.34;nan;100961.06;5044782;28;20088;-84
2023/09/27 03:10:18;;;;;;;0.10;0.10;;;;;;;14.30;nan;100965.91;5042597;28;20087;-84
2023/09/27 03:12:47;;;;;;;0.10;0.10;;;;;;;14.25;nan;100968.19;5048666;28;20029;-84
2023/09/27 03:15:12;;;;;;;;;;;;;;;14.14;nan;100973.84;5048725;28;20041;-84
2023/09/27 03:17:42;;;;;;;0.10;0.10;;;;;;;14.02;nan;100976.00;5033149;28;20389;-85
2023/09/27 03:20:15;;;;;;;0.10;0.10;;;;;;;13.90;nan;100979.97;5024807;28;20143;-84
2023/09/27 03:22:44;;;;;;;0.20;0.20;;;;;;;13.78;nan;100982.91;5044766;28;20503;-84
2023/09/27 03:25:10;;;;;;;0.10;0.10;;;;;;;13.70;nan;100987.34;5051714;28;20049;-84
2023/09/27 03:27:36;;;;;;;0.10;0.10;;;;;;;13.62;nan;100987.34;5041544;28;20445;-84
2023/09/27 03:30:04;;;;;;;0.20;0.20;;;;;;;13.51;nan;100999.06;5040307;28;20171;-85
2023/09/27 03:32:29;;;;;;;0.20;0.20;;;;;;;13.44;nan;101004.19;5050467;28;20044;-85
2023/09/27 03:34:54;;;;;;;0.10;0.10;;;;;;;13.33;nan;100999.16;5052031;28;20037;-84
2023/09/27 03:37:20;;;;;;;0.10;0.10;;;;;;;13.20;nan;100996.88;5052343;28;20139;-84
2023/09/27 03:39:45;;;;;;;0.20;0.20;;;;;;;13.13;nan;101007.31;5047833;28;20068;-84
2023/09/27 03:42:11;;;;;;;0.10;0.10;;;;;;;13.09;nan;101011.28;5042098;28;20038;-84
2023/09/27 03:44:36;;;;;;;0.20;0.20;;;;;;;13.06;nan;101013.41;5044719;28;20047;-84
2023/09/27 03:47:01;;;;;;;0.20;0.20;;;;;;;13.04;nan;101020.69;5047642;28;20056;-84
2023/09/27 03:49:26;;;;;;;;;;;;;;;13.00;nan;101027.31;5055160;28;20033;-84
2023/09/27 03:51:52;;;;;;;0.20;0.20;;;;;;;12.89;nan;101029.19;5046968;28;19924;-84
2023/09/27 03:54:17;;;;;;;0.10;0.10;;;;;;;12.81;nan;101030.97;5046227;28;20275;-84
2023/09/27 03:56:43;;;;;;;0.10;0.10;;;;;;;12.74;nan;101033.41;5045174;28;20029;-84
2023/09/27 03:59:08;;;;;;;0.20;0.20;;;;;;;12.71;nan;101031.06;5029681;28;20482;-83
2023/09/27 04:01:33;;;;;;;0.20;0.20;;;;;;;12.73;nan;101039.72;5051959;28;20279;-84
2023/09/27 04:03:58;;;;;;;0.20;0.20;;;;;;;12.67;nan;101045.63;5048698;28;20467;-84
2023/09/27 04:06:24;;;;;;;0.20;0.20;;;;;;;12.59;nan;101050.88;5052547;28;20044;-84
2023/09/27 04:08:50;;;;;;;0.20;0.20;;;;;;;12.49;nan;101058.91;5054298;28;20401;-84
2023/09/27 04:11:16;;;;;;;0.20;0.20;;;;;;;12.44;nan;101064.66;5045957;28;20049;-84
2023/09/27 04:13:41;;;;;;;0.20;0.20;;;;;;;12.44;nan;101061.16;5029950;28;20033;-84
2023/09/27 04:16:07;;;;;;;0.20;0.20;;;;;;;12.42;nan;101063.97;5028221;28;20041;-84
2023/09/27 04:18:32;;;;;;;0.10;0.10;;;;;;;12.43;nan;101060.31;5054187;28;20033;-83
2023/09/27 04:21:07;;;;;;;0.20;0.20;;;;;;;12.42;nan;101047.19;5045928;28;20281;-84
2023/09/27 04:23:33;;;;;;;0.20;0.20;;;;;;;12.44;nan;101035.50;5044563;28;20107;-84
2023/09/27 04:25:59;;;;;;;0.20;0.20;;;;;;;12.48;nan;101030.69;5048499;28;20445;-84
2023/09/27 04:28:25;;;;;;;0.20;0.20;;;;;;;12.52;nan;101016.97;5033810;28;20037;-84
2023/09/27 04:30:50;;;;;;;0.20;0.20;;;;;;;12.56;nan;101003.41;5028272;28;20102;-84
2023/09/27 04:33:18;;;;;;;0.20;0.20;;;;;;;12.56;nan;100987.47;5054386;28;20117;-84
2023/09/27 04:35:43;;;;;;;0.20;0.20;;;;;;;12.57;nan;100974.06;5027863;28;20522;-84
2023/09/27 04:38:10;;;;;;;0.20;0.20;;;;;;;12.61;nan;100972.78;5036560;28;20037;-84
2023/09/27 04:40:35;;;;;;;0.20;0.20;;;;;;;12.66;nan;100969.69;5055973;28;20056;-84
2023/09/27 04:43:00;;;;;;;0.28;0.28;;;;;;;12.67;nan;100974.81;5055538;28;20037;-84
2023/09/27 04:45:26;;;;;;;0.20;0.20;;;;;;;12.65;nan;100973.31;5029304;28;20045;-83
2023/09/27 04:47:52;;;;;;;0.20;0.20;;;;;;;12.57;nan;100979.38;5029410;28;20033;-84
2023/09/27 04:50:17;;;;;;;0.20;0.20;;;;;;;12.50;nan;100981.81;5022478;28;20120;-84
2023/09/27 04:52:43;;;;;;;0.20;0.20;;;;;;;12.50;nan;100992.41;5051841;28;20065;-83
2023/09/27 04:55:09;;;;;;;0.20;0.20;;;;;;;12.56;nan;100980.38;5033203;28;20491;-83
2023/09/27 04:57:35;;;;;;;0.20;0.20;;;;;;;12.72;nan;100974.34;5026145;28;20033;-84
2023/09/27 05:00:00;;;;;;;0.20;0.20;;;;;;;12.88;nan;100968.34;5036137;28;20031;-84
2023/09/27 05:02:27;;;;;;;0.20;0.20;;;;;;;12.99;nan;100967.22;5027212;28;20629;-84
2023/09/27 05:04:53;;;;;;;0.20;0.20;;;;;;;13.00;nan;100972.38;5041434;28;20034;-85
2023/09/27 05:07:19;;;;;;;0.10;0.10;;;;;;;13.08;nan;100968.94;5043070;28;20033;-83
2023/09/27 05:09:45;;;;;;;0.20;0.20;;;;;;;13.09;nan;100979.41;5037403;28;20049;-83
2023/09/27 05:12:12;;;;;;;0.20;0.20;;;;;;;13.05;nan;100983.38;5065329;28;20071;-84
2023/09/27 05:14:37;;;;;;;0.20;0.20;;;;;;;12.96;nan;100982.47;5063887;28;20043;-84
2023/09/27 05:17:03;;;;;;;0.20;0.20;;;;;;;12.90;nan;100992.91;5054669;28;20041;-83
2023/09/27 05:19:28;;;;;;;0.20;0.20;;;;;;;12.83;nan;100984.72;5056239;28;20100;-84
2023/09/27 05:21:54;;;;;;;0.10;0.10;;;;;;;12.81;nan;100988.53;5044090;28;20052;-84
2023/09/27 05:24:19;;;;;;;0.20;0.20;;;;;;;12.82;nan;101003.44;5025090;28;20037;-82
2023/09/27 05:26:45;;;;;;;0.20;0.20;;;;;;;12.84;nan;101004.13;5055927;28;20110;-82
2023/09/27 05:29:13;;;;;;;0.20;0.20;;;;;;;12.85;nan;101011.13;5044281;28;20041;-82
2023/09/27 05:31:43;;;;;;;0.20;0.20;;;;;;;12.81;nan;101015.88;5034375;28;20033;-82
2023/09/27 05:34:08;;;;;;;0.20;0.20;;;;;;;12.73;nan;101015.84;5028789;28;20116;-82
2023/09/27 05:36:34;;;;;;;0.20;0.20;;;;;;;12.70;nan;101024.09;5042015;28;20051;-83
2023/09/27 05:39:02;;;;;;;0.17;0.17;;;;;;;12.68;nan;101024.25;5038238;28;20025;-84
2023/09/27 05:41:27;;;;;;;0.10;0.10;;;;;;;12.66;nan;101025.41;5037120;28;20029;-84
2023/09/27 05:43:52;;;;;;;0.20;0.20;;;;;;;12.61;nan;101036.47;5045711;28;20119;-83
2023/09/27 05:46:18;;;;;;;0.10;0.10;;;;;;;12.61;nan;101051.53;5044027;28;20034;-83
2023/09/27 05:48:43;;;;;;;0.20;0.20;;;;;;;12.59;nan;101053.53;5040016;28;20061;-82
2023/09/27 05:51:09;;;;;;;0.20;0.20;;;;;;;12.65;nan;101055.56;5047295;28;20123;-83
2023/09/27 05:53:34;;;;;;;0.20;0.20;;;;;;;12.80;nan;101059.34;5034195;28;20502;-82
2023/09/27 05:56:03;;;;;;;0.13;0.13;;;;;;;12.94;nan;101050.84;5034036;28;20036;-82
2023/09/27 05:58:29;;;;;;;0.13;0.13;;;;;;;13.10;nan;101047.44;5023968;28;20565;-81
2023/09/27 06:00:54;;;;;;;0.20;0.20;;;;;;;13.25;nan;101053.03;5032747;28;20125;-82
2023/09/27 06:03:20;;;;;;;0.10;0.10;;;;;;;13.32;nan;101046.16;5030430;28;20510;-84
2023/09/27 06:05:45;;;;;;;0.10;0.10;;;;;;;13.53;nan;101048.41;5034882;28;20497;-83
2023/09/27 06:08:10;;;;;;;0.10;0.10;;;;;;;13.64;nan;101043.81;5035611;28;20490;-84
2023/09/27 06:10:35;;;;;;;0.20;0.20;;;;;;;13.79;nan;101045.69;5036751;28;20608;-81
2023/09/27 06:13:01;;;;;;;0.10;0.10;;;;;;;14.08;nan;101049.78;5032881;28;20037;-84
2023/09/27 06:15:26;;;;;;;0.10;0.10;;;;;;;14.46;nan;101055.53;5034238;28;20040;-83
2023/09/27 06:17:51;;;;;;;0.10;0.10;;;;;;;14.90;nan;101057.06;5034228;28;20119;-84
2023/09/27 06:20:20;;;;;;;;;;;;;;;15.32;nan;101050.69;5053607;28;20045;-85
2023/09/27 06:22:48;;;;;;;0.10;0.10;;;;;;;15.77;nan;101060.75;5050769;28;19916;-85
2023/09/27 06:25:14;;;;;;;0.10;0.10;;;;;;;16.19;nan;101050.72;5030790;28;20455;-83
2023/09/27 06:27:40;;;;;;;0.10;0.10;;;;;;;16.57;nan;101051.66;5048789;28;20433;-83
2023/09/27 06:30:07;;;;;;;0.10;0.10;;;;;;;16.98;nan;101046.81;5038394;28;20079;-83
2023/09/27 06:32:34;;;;;;;0.10;0.10;;;;;;;17.29;nan;101053.88;5031661;28;20276;-84
2023/09/27 06:34:59;;;;;;;0.10;0.10;;;;;;;17.53;nan;101057.28;5031279;28;20411;-83
2023/09/27 06:37:24;;;;;;;0.10;0.10;;;;;;;17.88;nan;101058.41;5051743;28;20029;-84
2023/09/27 06:39:50;;;;;;;0.10;0.10;;;;;;;18.14;nan;101049.88;5037536;28;20032;-84
2023/09/27 06:42:15;;;;;;;0.10;0.10;;;;;;;18.29;nan;101052.50;5053638;28;20406;-83
2023/09/27 06:44:41;;;;;;;0.10;0.10;;;;;;;18.64;nan;101052.66;5046008;28;20029;-84
2023/09/27 06:47:06;;;;;;;0.10;0.10;;;;;;;18.93;nan;101059.72;5019268;28;20535;-83
2023/09/27 06:49:32;;;;;;;0.10;0.10;;;;;;;19.07;nan;101060.66;5028126;28;20288;-83
2023/09/27 06:51:57;;;;;;;0.10;0.10;;;;;;;19.22;nan;101063.25;5035352;28;20031;-85
2023/09/27 06:54:22;;;;;;;0.10;0.10;;;;;;;19.33;nan;101064.53;5051933;28;20331;-83
2023/09/27 06:56:47;;;;;;;0.10;0.10;;;;;;;19.30;nan;101063.09;5049905;28;20042;-83
2023/09/27 06:59:13;;;;;;;0.00;0.00;;;;;;;19.20;nan;101066.13;5045492;28;20409;-84
2023/09/27 07:01:38;;;;;;;0.00;0.00;;;;;;;19.07;nan;101060.66;5050623;28;20459;-84
2023/09/27 07:04:03;;;;;;;0.10;0.10;;;;;;;18.72;nan;101065.09;5025683;28;20033;-83
2023/09/27 07:06:29;;;;;;;0.00;0.00;;;;;;;18.61;nan;101064.56;5040501;28;20387;-85
2023/09/27 07:08:57;;;;;;;0.10;0.10;;;;;;;18.35;nan;101065.16;5020318;28;20033;-85
2023/09/27 07:11:23;;;;;;;0.10;0.10;;;;;;;18.03;nan;101067.22;5034013;28;20032;-85
2023/09/27 07:13:49;;;;;;;0.10;0.10;;;;;;;17.83;nan;101061.66;5030160;28;21170;-85
2023/09/27 07:16:26;;;;;;;0.10;0.10;;;;;;;17.87;nan;101054.06;5040305;28;20429;-85
2023/09/27 07:18:53;;;;;;;0.00;0.00;;;;;;;17.95;nan;101053.97;5039413;28;20399;-84
2023/09/27 07:21:21;;;;;;;0.00;0.00;;;;;;;18.02;nan;101054.88;5046360;28;20413;-85
2023/09/27 07:23:47;;;;;;;0.00;0.00;;;;;;;18.19;nan;101057.34;5033579;28;20401;-85
2023/09/27 07:26:13;;;;;;;0.00;0.00;;;;;;;18.17;nan;101049.50;5038938;28;20033;-84
2023/09/27 07:28:39;;;;;;;0.10;0.10;;;;;;;18.26;nan;101050.22;5057153;28;20032;-85
2023/09/27 07:31:05;;;;;;;0.10;0.10;;;;;;;18.49;nan;101044.66;5043955;28;20628;-86
2023/09/27 07:33:31;;;;;;;0.10;0.10;;;;;;;18.88;nan;101048.78;5045387;28;20060;-86
2023/09/27 07:35:58;;;;;;;0.10;0.10;;;;;;;19.43;nan;101048.94;5028225;28;20021;-84
2023/09/27 07:38:23;;;;;;;0.10;0.10;;;;;;;19.90;nan;101050.88;5056385;28;20056;-85
2023/09/27 07:40:48;;;;;;;0.00;0.00;;;;;;;20.29;nan;101051.19;5054783;28;20040;-85
2023/09/27 07:43:15;;;;;;;0.10;0.10;;;;;;;20.67;nan;101048.81;5025487;28;20333;-85
2023/09/27 07:45:42;;;;;;;0.10;0.10;;;;;;;21.08;nan;101049.63;5031088;28;20268;-87
2023/09/27 07:48:08;;;;;;;0.10;0.10;;;;;;;21.48;nan;101052.28;5051298;28;20071;-85
2023/09/27 07:50:37;;;;;;;0.10;0.10;;;;;;;21.83;nan;101045.53;5035920;28;20037;-86
2023/09/27 07:53:06;;;;;;;0.10;0.10;;;;;;;22.09;nan;101048.31;5019269;28;20079;-84
2023/09/27 07:55:33;;;;;;;0.00;0.00;;;;;;;22.51;nan;101046.84;5018165;28;20030;-86
2023/09/27 07:57:59;;;;;;;0.00;0.00;;;;;;;22.83;nan;101044.09;5018778;28;20056;-84
2023/09/27 08:00:29;;;;;;;0.00;0.00;;;;;;;23.02;nan;101043.13;5024147;28;20095;-84
2023/09/27 08:02:57;;;;;;;0.00;0.00;;;;;;;23.24;nan;101045.41;5056526;28;20037;-85
2023/09/27 08:05:24;;;;;;;0.00;0.00;;;;;;;23.63;nan;101038.78;5035219;28;20037;-84
2023/09/27 08:07:50;;;;;;;0.00;0.00;;;;;;;23.88;nan;101041.41;5054147;28;20040;-84
2023/09/27 08:10:17;;;;;;;0.85;0.85;;;;;;;24.17;nan;101037.06;5055166;28;20028;-85
2023/09/27 08:12:43;;;;;;;0.00;0.00;;;;;;;24.56;nan;101031.31;5038112;28;20036;-84
2023/09/27 08:15:09;;;;;;;0.00;0.00;;;;;;;24.86;nan;101030.41;5037648;28;20025;-86
2023/09/27 08:17:35;;;;;;;0.00;0.00;;;;;;;25.17;nan;101030.09;5037720;28;20124;-85
2023/09/27 08:20:00;;;;;;;0.00;0.00;;;;;;;25.60;nan;101023.44;5056545;28;20128;-86
2023/09/27 08:22:26;;;;;;;0.00;0.00;;;;;;;26.05;nan;101022.72;5055520;28;20056;-84
2023/09/27 08:24:51;;;;;;;0.00;0.00;;;;;;;26.54;nan;101021.41;5037976;28;20117;-84
2023/09/27 08:27:19;;;;;;;0.00;0.00;;;;;;;27.08;nan;101027.16;5023362;28;20091;-86
2023/09/27 08:29:45;;;;;;;0.00;0.00;;;;;;;27.15;nan;101024.22;5025854;28;20055;-86
2023/09/27 08:32:10;;;;;;;0.00;0.00;;;;;;;27.26;nan;101016.00;5046891;28;20051;-86
2023/09/27 08:34:36;;;;;;;0.00;0.00;;;;;;;27.61;nan;101014.00;5053330;28;20039;-86
2023/09/27 08:37:02;;;;;;;0.00;0.00;;;;;;;28.02;nan;101019.94;5045182;28;20272;-86
2023/09/27 08:39:27;;;;;;;0.00;0.00;;;;;;;28.23;nan;101018.22;5055408;28;20037;-86
2023/09/27 08:41:55;;;;;;;0.00;0.00;;;;;;;28.32;nan;101016.69;5036783;28;20029;-86
2023/09/27 08:44:25;;;;;;;0.00;0.00;;;;;;;28.55;nan;101021.78;5053352;28;20029;-86
2023/09/27 08:46:54;;;;;;;0.00;0.00;;;;;;;28.89;nan;101023.41;5027728;28;20033;-86
2023/09/27 08:49:19;;;;;;;0.00;0.00;;;;;;;29.10;nan;101018.94;5036140;28;20396;-86
2023/09/27 08:51:46;;;;;;;0.00;0.00;;;;;;;29.39;nan;101025.63;5027528;28;20029;-85
2023/09/27 08:54:16;;;;;;;0.00;0.00;;;;;;;29.68;nan;101027.16;5030759;28;20036;-86
2023/09/27 08:56:46;;;;;;;0.00;0.00;;;;;;;30.01;nan;101018.50;5043110;28;20080;-86
2023/09/27 08:59:11;;;;;;;0.00;0.00;;;;;;;30.28;nan;101014.75;5036345;28;20090;-86
2023/09/27 09:01:42;;;;;;;0.00;0.00;;;;;;;30.49;nan;101018.31;5052116;28;20037;-86
2023/09/27 09:04:08;;;;;;;0.00;0.00;;;;;;;30.44;nan;101012.84;5032546;28;20556;-86
2023/09/27 09:06:34;;;;;;;0.00;0.00;;;;;;;30.50;nan;101017.19;5036143;28;20033;-86
2023/09/27 09:09:10;;;;;;;0.00;0.00;;;;;;;30.82;nan;101027.00;5036188;28;20025;-86
2023/09/27 09:11:38;;;;;;;0.00;0.00;;;;;;;31.19;nan;101021.22;5056086;28;20083;-86
2023/09/27 09:14:04;;;;;;;0.00;0.00;;;;;;;31.50;nan;101023.88;5055412;28;20029;-84
2023/09/27 09:16:47;;;;;;;0.00;0.00;;;;;;;31.91;nan;101013.53;5054648;28;20522;-85
2023/09/27 09:19:19;;;;;;;0.00;0.00;;;;;;;32.25;nan;101012.78;5044202;28;20030;-85
2023/09/27 09:21:46;;;;;;;0.00;0.00;;;;;;;32.13;nan;101012.31;5044289;28;20029;-82
2023/09/27 09:24:19;;;;;;;0.00;0.00;;;;;;;32.28;nan;101005.94;5046898;28;20383;-81
2023/09/27 09:26:45;;;;;;;0.00;0.00;;;;;;;32.53;nan;101004.91;5052740;28;20029;-82
2023/09/27 09:29:12;;;;;;;0.00;0.00;;;;;;;32.79;nan;101005.47;5051809;28;20067;-84
2023/09/27 09:31:38;;;;;;;0.00;0.00;;;;;;;32.88;nan;101008.41;5042108;28;20041;-81
2023/09/27 09:34:08;;;;;;;0.00;0.00;;;;;;;32.88;nan;100997.47;5045417;28;20098;-82
2023/09/27 09:36:34;;;;;;;0.00;0.00;;;;;;;33.10;nan;100991.47;5020096;28;20029;-82
2023/09/27 09:39:14;;;;;;;0.00;0.00;;;;;;;33.11;nan;100993.94;5051327;28;20038;-83
2023/09/27 09:41:46;;;;;;;0.00;0.00;;;;;;;33.68;nan;100988.59;5050553;28;20037;-82
2023/09/27 09:44:24;;;;;;;0.00;0.00;;;;;;;33.82;nan;100985.88;5033167;28;20031;-82
2023/09/27 09:46:51;;;;;;;0.00;0.00;;;;;;;34.04;nan;100980.63;5042025;28;20021;-83
2023/09/27 09:49:17;;;;;;;0.00;0.00;;;;;;;34.51;nan;100980.69;5041962;28;20116;-83
2023/09/27 09:51:47;;;;;;;0.00;0.00;;;;;;;34.76;nan;100982.19;5043661;28;20481;-84
2023/09/27 09:54:28;;;;;;;0.00;0.00;;;;;;;34.70;nan;100974.34;5040067;28;20399;-85
2023/09/27 09:56:57;;;;;;;0.00;0.00;;;;;;;35.06;nan;100980.78;5043165;28;20395;-82
2023/09/27 09:59:29;;;;;;;0.00;0.00;;;;;;;35.19;nan;100978.34;5052181;28;20748;-84
2023/09/27 10:01:59;;;;;;;0.00;0.00;;;;;;;35.39;nan;100971.59;5050257;28;20700;-84
2023/09/27 10:04:26;;;;;;;0.00;0.00;;;;;;;35.78;nan;100959.19;5046783;28;20579;-84
2023/09/27 10:06:54;;;;;;;0.00;0.00;;;;;;;36.12;nan;100966.94;5052538;28;20472;-83
2023/09/27 10:09:21;;;;;;;0.00;0.00;;;;;;;36.14;nan;100951.72;5052971;28;20394;-83
2023/09/27 10:11:46;;;;;;;0.00;0.00;;;;;;;36.03;nan;100957.75;5052877;28;20397;-84
2023/09/27 10:14:13;;;;;;;0.00;0.00;;;;;;;36.27;nan;100965.72;5033805;28;20029;-85
2023/09/27 10:16:38;;;;;;;0.00;0.00;;;;;;;36.52;nan;100956.78;5025759;28;20087;-83
2023/09/27 10:19:05;;;;;;;0.00;0.00;;;;;;;36.68;nan;100962.72;5027926;28;20033;-85
2023/09/27 10:21:31;;;;;;;0.00;0.00;;;;;;;36.85;nan;100962.00;5045498;28;20046;-83
2023/09/27 10:23:58;;;;;;;0.00;0.00;;;;;;;36.83;nan;100963.41;5039480;28;20035;-86
2023/09/27 10:26:26;;;;;;;0.00;0.00;;;;;;;37.08;nan;100954.44;5030135;28;20085;-84
2023/09/27 10:29:00;;;;;;;0.00;0.00;;;;;;;37.16;nan;100952.84;5056011;28;20040;-84
2023/09/27 10:31:26;;;;;;;0.00;0.00;;;;;;;37.44;nan;100953.38;5051144;28;20060;-85
2023/09/27 10:33:51;;;;;;;0.00;0.00;;;;;;;37.70;nan;100955.38;5055702;28;20041;-83
2023/09/27 10:36:19;;;;;;;0.00;0.00;;;;;;;37.57;nan;100951.66;5052845;28;20033;-84
2023/09/27 10:38:45;;;;;;;0.00;0.00;;;;;;;37.55;nan;100954.72;5046350;28;20273;-84
2023/09/27 10:41:33;;;;;;;0.00;0.00;;;;;;;38.15;nan;100942.03;5055059;28;20133;-85
2023/09/27 10:43:59;;;;;;;0.00;0.00;;;;;;;38.43;nan;100942.44;5037030;28;20033;-86
2023/09/27 10:46:24;;;;;;;0.00;0.00;;;;;;;38.34;nan;100941.63;5039193;28;20040;-82
2023/09/27 10:49:00;;;;;;;0.00;0.00;;;;;;;38.71;nan;100935.66;5021767;28;20407;-82
2023/09/27 10:51:26;;;;;;;0.00;0.00;;;;;;;39.02;nan;100938.97;5042472;28;20025;-82
2023/09/27 10:53:52;;;;;;;0.00;0.00;;;;;;;39.39;nan;100927.34;5023865;28;20033;-82
2023/09/27 10:56:18;;;;;;;0.00;0.00;;;;;;;39.38;nan;100929.31;5028417;28;20030;-82
2023/09/27 10:58:45;;;;;;;0.00;0.00;;;;;;;38.38;nan;100919.72;5028894;28;20411;-82
2023/09/27 11:01:11;;;;;;;0.00;0.00;;;;;;;36.39;nan;100921.06;5025794;28;20514;-83
2023/09/27 11:03:40;;;;;;;0.00;0.00;;;;;;;35.47;nan;100915.88;5051194;28;20037;-84
2023/09/27 11:06:12;;;;;;;0.00;0.00;;;;;;;35.57;nan;100915.63;5029707;28;20037;-84
2023/09/27 11:08:40;;;;;;;0.00;0.00;;;;;;;36.36;nan;100908.75;5024888;28;20060;-81
2023/09/27 11:11:11;;;;;;;0.00;0.00;;;;;;;37.05;nan;100907.41;5022807;28;20037;-82
2023/09/27 11:13:44;;;;;;;0.00;0.00;;;;;;;37.24;nan;100907.94;5026620;28;20033;-86
2023/09/27 11:16:14;;;;;;;0.00;0.00;;;;;;;37.81;nan;100898.69;5050873;28;20033;-85
2023/09/27 11:18:48;;;;;;;0.00;0.00;;;;;;;38.37;nan;100890.44;5050689;28;20029;-84
2023/09/27 11:21:15;;;;;;;0.00;0.00;;;;;;;38.71;nan;100888.69;5038973;28;20041;-84
2023/09/27 11:23:58;;;;;;;0.00;0.00;;;;;;;38.62;nan;100884.03;5026790;28;20037;-86
2023/09/27 11:26:26;;;;;;;0.00;0.00;;;;;;;38.31;nan;100889.81;5020430;28;20091;-85
2023/09/27 11:29:03;;;;;;;0.00;0.00;;;;;;;38.13;nan;100883.53;5028223;28;20026;-85
2023/09/27 11:31:33;;;;;;;0.00;0.00;;;;;;;36.78;nan;100881.72;5030932;28;20037;-85
2023/09/27 11:34:19;;;;;;;0.00;0.00;;;;;;;35.37;nan;100872.09;5050275;28;20386;-85
2023/09/27 11:36:52;;;;;;;0.00;0.00;;;;;;;33.97;nan;100861.41;5022576;28;20060;-84
2023/09/27 11:39:20;;;;;;;0.00;0.00;;;;;;;33.51;nan;100857.41;5047519;28;20038;-85
2023/09/27 11:41:46;;;;;;;0.00;0.00;;;;;;;32.71;nan;100855.50;5046935;28;20044;-85